Time;durP1;ratioP1;P1;durP2;ratioP2;P2;SDS_P1;SDS_P2;PMS_P1;PMS_P2;Temp;Humidity;BMP_temperature;BMP_pressure;BME280_temperature;BME280_humidity;BME280_pressure;Samples;Min_cycle;Max_cycle;Signal;HPM_P1;HPM_P2
2022/12/30 00:00:13;;;;;;;68.28;35.42;;;7.90;61.90;;;;;;5015157;28;20022;-89
2022/12/30 00:02:39;;;;;;;61.15;33.38;;;7.00;64.70;;;;;;5014875;28;20036;-89
2022/12/30 00:05:05;;;;;;;64.43;33.83;;;6.60;65.90;;;;;;5015858;28;20029;-91
2022/12/30 00:07:34;;;;;;;68.40;35.28;;;6.20;67.60;;;;;;5014347;28;20029;-88
2022/12/30 00:10:00;;;;;;;64.60;34.60;;;6.00;69.00;;;;;;5014680;28;20030;-89
2022/12/30 00:35:25;;;;;;;80.18;40.78;;;9.80;58.40;;;;;;5014619;28;20044;-90
2022/12/30 00:37:50;;;;;;;81.03;42.10;;;9.80;58.40;;;;;;5013171;28;20050;-90
2022/12/30 00:40:16;;;;;;;78.90;38.60;;;9.90;58.20;;;;;;5012891;28;20095;-89
2022/12/30 00:45:26;;;;;;;79.53;41.38;;;10.20;57.90;;;;;;5014980;28;20088;-90
2022/12/30 00:47:53;;;;;;;81.78;41.70;;;10.40;57.10;;;;;;5012885;28;20026;-89
2022/12/30 00:58:31;;;;;;;79.60;41.72;;;9.60;58.30;;;;;;5014705;28;20088;-89
2022/12/30 01:00:56;;;;;;;76.90;40.42;;;9.40;59.10;;;;;;5013261;28;20058;-89
2022/12/30 01:03:22;;;;;;;76.10;40.05;;;9.10;59.50;;;;;;5012877;28;20495;-89
2022/12/30 01:05:48;;;;;;;72.00;39.35;;;8.80;60.80;;;;;;5012779;28;20041;-89
2022/12/30 01:08:13;;;;;;;73.47;40.38;;;9.00;60.80;;;;;;5013205;28;20034;-89
2022/12/30 01:10:40;;;;;;;80.53;41.47;;;9.30;60.00;;;;;;5013894;28;20025;-88
2022/12/30 01:13:06;;;;;;;77.57;41.90;;;9.70;59.40;;;;;;5014440;28;20362;-88
2022/12/30 01:15:32;;;;;;;76.35;39.42;;;10.00;58.20;;;;;;5013520;28;20026;-88
2022/12/30 01:17:58;;;;;;;71.05;38.17;;;9.80;58.30;;;;;;5014122;28;20029;-89
2022/12/30 01:20:24;;;;;;;75.82;40.25;;;9.30;59.30;;;;;;5014511;28;20021;-88
2022/12/30 01:22:50;;;;;;;73.85;39.20;;;8.70;61.30;;;;;;5017804;28;20022;-89
2022/12/30 01:25:15;;;;;;;78.32;40.05;;;8.90;61.00;;;;;;5016686;28;20117;-89
2022/12/30 01:27:41;;;;;;;76.13;41.05;;;9.20;60.20;;;;;;5016613;28;20071;-88
2022/12/30 01:30:09;;;;;;;79.65;41.42;;;9.40;60.20;;;;;;5016734;28;20029;-88
2022/12/30 01:32:36;;;;;;;72.65;39.15;;;9.60;59.20;;;;;;5016517;28;20026;-89
2022/12/30 01:35:03;;;;;;;78.93;41.38;;;10.00;58.70;;;;;;5017114;28;20481;-88
2022/12/30 01:37:29;;;;;;;77.63;42.00;;;10.30;58.20;;;;;;5016537;28;20120;-88
2022/12/30 01:39:55;;;;;;;82.47;42.28;;;10.20;58.20;;;;;;5016318;28;20085;-88
2022/12/30 01:42:26;;;;;;;77.75;43.00;;;10.30;57.90;;;;;;5016302;28;20026;-88
2022/12/30 01:44:56;;;;;;;80.45;43.17;;;10.50;57.40;;;;;;5016267;28;20061;-88
2022/12/30 01:47:37;;;;;;;85.88;42.90;;;10.80;57.30;;;;;;5016585;28;20049;-88
2022/12/30 01:50:12;;;;;;;83.45;43.60;;;10.90;56.70;;;;;;5016430;28;20033;-88
2022/12/30 01:52:46;;;;;;;84.85;43.20;;;10.90;56.90;;;;;;5016611;28;20032;-87
2022/12/30 01:55:21;;;;;;;72.65;39.53;;;11.00;56.70;;;;;;5016083;28;20488;-86
2022/12/30 01:57:50;;;;;;;73.20;37.92;;;11.00;56.50;;;;;;5016480;28;20033;-86
2022/12/30 02:00:17;;;;;;;72.05;38.85;;;10.50;57.30;;;;;;5017382;28;20053;-87
2022/12/30 02:02:43;;;;;;;72.40;37.17;;;9.70;58.90;;;;;;5016078;28;20469;-86
2022/12/30 02:05:10;;;;;;;78.85;39.85;;;8.70;61.00;;;;;;5016220;28;20040;-86
2022/12/30 02:07:45;;;;;;;78.38;41.08;;;8.60;63.10;;;;;;5016812;28;20030;-86
2022/12/30 02:10:11;;;;;;;68.65;37.22;;;9.20;61.60;;;;;;5015882;28;20037;-86
2022/12/30 02:12:37;;;;;;;78.82;40.80;;;9.60;60.00;;;;;;5015721;28;20022;-86
2022/12/30 02:15:04;;;;;;;77.97;40.33;;;9.90;59.40;;;;;;5016119;28;20266;-86
2022/12/30 02:18:05;;;;;;;76.75;40.00;;;9.90;59.60;;;;;;5016547;28;20010;-86
2022/12/30 02:20:49;;;;;;;76.53;40.58;;;10.00;59.30;;;;;;5015711;28;20468;-87
2022/12/30 02:23:45;;;;;;;86.40;40.55;;;10.30;58.80;;;;;;5015538;28;20436;-86
2022/12/30 02:26:48;;;;;;;90.43;41.53;;;10.30;59.30;;;;;;5015464;28;20049;-86
2022/12/30 02:29:41;;;;;;;80.43;39.08;;;10.60;58.90;;;;;;5015449;28;20033;-87
2022/12/30 02:32:30;;;;;;;81.25;39.85;;;10.70;58.90;;;;;;5014569;28;20026;-87
2022/12/30 02:35:10;;;;;;;93.25;40.55;;;10.80;58.60;;;;;;5015292;28;20358;-87
2022/12/30 02:37:45;;;;;;;80.85;40.00;;;10.90;58.50;;;;;;5015417;28;20040;-86
2022/12/30 02:40:22;;;;;;;81.60;40.13;;;10.90;58.70;;;;;;5016122;28;20022;-86
2022/12/30 02:45:54;;;;;;;105.80;45.25;;;10.80;59.00;;;;;;5017304;28;20040;-86
2022/12/30 02:48:28;;;;;;;100.03;43.88;;;10.70;59.90;;;;;;5016039;28;20080;-85
2022/12/30 02:53:41;;;;;;;93.10;44.40;;;10.70;59.60;;;;;;5016683;28;20041;-86
2022/12/30 02:56:08;;;;;;;95.25;41.47;;;10.70;60.00;;;;;;5014789;28;20022;-86
2022/12/30 02:58:37;;;;;;;114.22;45.38;;;10.50;60.20;;;;;;5014903;28;20316;-86
2022/12/30 03:04:08;;;;;;;100.93;44.28;;;10.30;61.00;;;;;;5015986;28;20056;-92
2022/12/30 03:06:52;;;;;;;99.95;43.47;;;10.50;60.90;;;;;;5014691;28;20034;-92
2022/12/30 03:09:39;;;;;;;92.57;40.20;;;10.70;60.60;;;;;;5015572;28;20037;-92
2022/12/30 03:12:29;;;;;;;116.97;45.47;;;10.90;60.00;;;;;;5015966;28;20117;-92
2022/12/30 03:15:03;;;;;;;100.63;44.38;;;10.90;60.50;;;;;;5014814;28;20030;-93
2022/12/30 03:17:38;;;;;;;108.05;44.55;;;11.00;59.70;;;;;;5015901;28;20038;-86
2022/12/30 03:20:09;;;;;;;104.80;44.20;;;10.80;60.00;;;;;;5014987;28;20022;-90
2022/12/30 03:28:09;;;;;;;120.57;46.25;;;10.80;60.80;;;;;;5015640;28;20041;-86
2022/12/30 03:30:44;;;;;;;112.25;44.33;;;10.90;60.60;;;;;;5014544;28;20014;-93
2022/12/30 03:33:10;;;;;;;131.77;48.17;;;10.90;60.50;;;;;;5014474;28;20469;-91
2022/12/30 03:35:41;;;;;;;120.25;45.97;;;10.90;60.30;;;;;;5014287;28;20026;-93
2022/12/30 03:38:08;;;;;;;113.20;44.03;;;11.00;60.20;;;;;;5013910;28;20042;-94
2022/12/30 03:40:38;;;;;;;113.18;43.42;;;11.00;60.30;;;;;;5015695;28;20030;-92
2022/12/30 03:43:05;;;;;;;;;;;11.10;60.20;;;;;;5015510;28;20033;-93
2022/12/30 03:45:31;;;;;;;110.95;42.50;;;11.20;59.70;;;;;;5014092;28;19913;-91
2022/12/30 03:47:57;;;;;;;117.97;44.20;;;10.90;60.10;;;;;;5015581;28;20037;-90
2022/12/30 03:50:23;;;;;;;136.85;46.13;;;10.70;60.70;;;;;;5015622;28;20362;-92
2022/12/30 03:52:49;;;;;;;120.13;45.97;;;10.60;61.50;;;;;;5015172;28;20080;-91
2022/12/30 03:55:15;;;;;;;123.50;44.20;;;10.50;61.40;;;;;;5015218;28;20030;-91
2022/12/30 03:57:41;;;;;;;116.10;43.15;;;10.60;61.20;;;;;;5015142;28;20018;-91
2022/12/30 04:00:08;;;;;;;133.32;46.55;;;10.90;60.90;;;;;;5014860;28;20049;-91
2022/12/30 04:02:35;;;;;;;116.13;42.85;;;11.00;60.30;;;;;;5014983;28;20026;-90
2022/12/30 04:05:04;;;;;;;120.70;44.88;;;11.10;60.20;;;;;;5014864;28;20096;-91
2022/12/30 04:07:29;;;;;;;95.03;38.28;;;11.10;59.70;;;;;;5014738;28;20032;-88
2022/12/30 04:09:55;;;;;;;112.50;42.53;;;11.00;60.20;;;;;;5014094;28;20029;-89
2022/12/30 04:12:21;;;;;;;117.53;41.65;;;11.00;60.30;;;;;;5013497;28;20029;-90
2022/12/30 04:14:46;;;;;;;120.68;43.05;;;11.10;60.20;;;;;;5013377;28;20487;-90
2022/12/30 04:17:12;;;;;;;103.28;42.65;;;11.20;60.30;;;;;;5013461;28;20030;-86
2022/12/30 04:19:38;;;;;;;109.97;42.47;;;11.20;60.10;;;;;;5014097;28;20032;-87
2022/12/30 04:22:03;;;;;;;116.68;45.08;;;11.30;59.60;;;;;;5013310;28;20026;-86
2022/12/30 04:24:29;;;;;;;110.00;42.42;;;11.20;59.60;;;;;;5013688;28;20034;-86
2022/12/30 04:26:55;;;;;;;111.72;44.83;;;11.00;60.00;;;;;;5014128;28;20441;-86
2022/12/30 04:29:20;;;;;;;106.30;44.13;;;10.90;60.60;;;;;;5013954;28;20026;-87
2022/12/30 04:31:46;;;;;;;112.03;42.35;;;10.70;60.80;;;;;;5014174;28;20481;-90
2022/12/30 04:34:14;;;;;;;97.45;40.50;;;10.80;61.00;;;;;;5014409;28;20152;-89
2022/12/30 04:36:41;;;;;;;115.97;42.70;;;10.90;61.00;;;;;;5014509;28;20038;-90
2022/12/30 04:39:07;;;;;;;109.05;42.60;;;11.10;60.60;;;;;;5013358;28;20137;-89
2022/12/30 04:41:33;;;;;;;90.15;39.70;;;11.20;60.50;;;;;;5013119;28;20534;-89
2022/12/30 04:44:03;;;;;;;102.63;41.92;;;11.20;60.10;;;;;;5013408;28;20532;-89
2022/12/30 04:46:29;;;;;;;99.03;41.67;;;11.20;60.20;;;;;;5012820;28;20133;-88
2022/12/30 04:48:55;;;;;;;94.95;41.65;;;11.20;59.70;;;;;;5012969;28;20465;-89
2022/12/30 04:51:21;;;;;;;93.95;41.25;;;10.80;60.50;;;;;;5013004;28;20030;-89
2022/12/30 04:53:47;;;;;;;95.43;40.63;;;10.60;61.60;;;;;;5012935;28;20458;-89
2022/12/30 04:56:12;;;;;;;100.53;43.28;;;10.80;61.10;;;;;;5013747;28;20116;-89
2022/12/30 04:58:38;;;;;;;89.90;40.58;;;10.80;61.10;;;;;;5013915;28;20113;-88
2022/12/30 05:01:05;;;;;;;104.20;41.30;;;11.00;60.50;;;;;;5013858;28;20491;-88
2022/12/30 05:03:30;;;;;;;95.65;39.33;;;11.20;60.30;;;;;;5014094;28;20033;-89
2022/12/30 05:05:57;;;;;;;94.00;41.78;;;11.20;59.70;;;;;;5013851;28;20061;-89
2022/12/30 05:08:23;;;;;;;83.43;38.53;;;10.90;60.60;;;;;;5014130;28;20022;-87
2022/12/30 05:10:49;;;;;;;107.50;43.78;;;10.60;61.10;;;;;;4996782;28;20049;-89
2022/12/30 05:13:15;;;;;;;99.53;41.25;;;10.50;61.80;;;;;;5012791;28;20049;-90
2022/12/30 05:15:41;;;;;;;115.70;43.75;;;10.60;61.70;;;;;;5012805;28;20033;-89
2022/12/30 05:18:08;;;;;;;108.53;44.42;;;10.70;61.80;;;;;;5012512;28;20030;-89
2022/12/30 05:20:34;;;;;;;99.05;41.22;;;11.00;61.00;;;;;;5012623;28;20117;-90
2022/12/30 05:23:00;;;;;;;101.63;43.22;;;11.40;60.20;;;;;;5012634;28;20497;-89
2022/12/30 05:28:09;;;;;;;96.50;40.95;;;11.70;59.20;;;;;;5014147;28;20488;-89
2022/12/30 05:30:35;;;;;;;95.80;39.92;;;11.70;59.00;;;;;;5012551;28;20022;-90
2022/12/30 05:33:01;;;;;;;97.75;40.25;;;11.70;58.60;;;;;;5012684;28;20022;-89
2022/12/30 05:35:26;;;;;;;99.25;40.55;;;11.60;58.80;;;;;;5012490;28;20033;-90
2022/12/30 05:37:52;;;;;;;112.47;43.85;;;11.50;59.40;;;;;;5012518;28;20525;-88
2022/12/30 05:40:18;;;;;;;106.30;43.70;;;11.60;59.50;;;;;;5013128;28;20041;-89
2022/12/30 05:42:44;;;;;;;98.75;43.38;;;11.80;59.00;;;;;;5013190;28;20022;-88
2022/12/30 05:45:10;;;;;;;109.28;42.95;;;11.70;59.30;;;;;;5013968;28;20481;-89
2022/12/30 05:47:36;;;;;;;119.35;43.30;;;11.70;59.10;;;;;;5013239;28;20125;-89
2022/12/30 05:50:01;;;;;;;110.45;43.15;;;11.80;58.40;;;;;;5014029;28;20109;-90
2022/12/30 05:52:29;;;;;;;104.47;43.08;;;11.70;58.60;;;;;;5013388;28;20029;-89
2022/12/30 05:54:54;;;;;;;114.57;43.13;;;11.50;58.80;;;;;;5013132;28;20489;-91
2022/12/30 05:57:20;;;;;;;99.85;42.08;;;11.10;59.90;;;;;;5013101;28;20040;-85
2022/12/30 05:59:46;;;;;;;98.03;40.65;;;10.90;60.70;;;;;;5013692;28;20432;-91
2022/12/30 06:02:11;;;;;;;97.10;42.15;;;11.00;60.40;;;;;;5013710;28;20022;-91
2022/12/30 06:04:37;;;;;;;115.55;45.38;;;11.20;59.90;;;;;;5013535;28;20045;-90
2022/12/30 06:07:03;;;;;;;97.65;43.17;;;11.40;60.30;;;;;;5011577;28;20056;-89
2022/12/30 06:09:29;;;;;;;99.80;41.40;;;11.50;59.60;;;;;;5006397;28;20481;-88
2022/12/30 06:11:54;;;;;;;102.70;43.35;;;11.70;59.20;;;;;;5006076;28;20057;-89
2022/12/30 06:14:21;;;;;;;100.88;43.47;;;11.80;58.90;;;;;;5016670;28;20033;-87
2022/12/30 06:16:47;;;;;;;122.13;51.80;;;11.50;59.30;;;;;;5017254;28;20088;-91
2022/12/30 06:19:13;;;;;;;152.95;62.17;;;11.20;59.90;;;;;;5017146;28;20030;-90
2022/12/30 06:21:39;;;;;;;185.50;80.95;;;11.00;60.60;;;;;;5017399;28;20033;-89
2022/12/30 06:24:06;;;;;;;118.88;55.00;;;10.60;61.00;;;;;;5016999;28;20030;-88
2022/12/30 06:26:32;;;;;;;114.10;52.38;;;10.00;63.20;;;;;;5015860;28;20045;-89
2022/12/30 06:28:57;;;;;;;171.90;68.72;;;10.10;63.20;;;;;;5015780;28;20034;-88
2022/12/30 06:31:23;;;;;;;142.45;59.53;;;10.60;62.50;;;;;;5015916;28;20386;-88
2022/12/30 06:33:49;;;;;;;133.73;58.50;;;11.10;60.60;;;;;;5015641;28;20026;-87
2022/12/30 06:36:14;;;;;;;114.18;48.33;;;11.40;59.90;;;;;;5015745;28;20056;-87
2022/12/30 06:38:40;;;;;;;118.45;48.22;;;11.70;59.20;;;;;;5015543;28;20069;-87
2022/12/30 06:41:06;;;;;;;123.72;52.47;;;11.80;58.90;;;;;;5015434;28;20045;-90
2022/12/30 06:43:32;;;;;;;157.32;62.50;;;11.80;58.50;;;;;;5015372;28;20029;-90
2022/12/30 06:45:58;;;;;;;221.45;87.65;;;11.60;59.60;;;;;;5015337;28;20038;-89
2022/12/30 06:48:23;;;;;;;179.90;73.28;;;11.70;58.90;;;;;;5016106;28;20488;-90
2022/12/30 06:50:49;;;;;;;115.85;53.15;;;11.90;59.00;;;;;;5016046;28;20457;-90
2022/12/30 06:53:15;;;;;;;110.78;47.63;;;12.00;58.40;;;;;;5015479;28;20535;-89
2022/12/30 06:55:41;;;;;;;123.40;53.60;;;11.80;58.40;;;;;;5015198;28;20428;-90
2022/12/30 06:58:07;;;;;;;137.25;72.47;;;11.70;59.40;;;;;;5013769;28;20033;-90
2022/12/30 07:00:34;;;;;;;120.00;57.40;;;11.70;59.10;;;;;;4995517;28;20027;-90
2022/12/30 07:02:59;;;;;;;137.52;61.38;;;11.70;58.60;;;;;;4996021;28;20045;-89
2022/12/30 07:05:25;;;;;;;133.90;58.95;;;11.90;58.50;;;;;;4995383;28;20060;-90
2022/12/30 07:07:51;;;;;;;126.53;55.38;;;12.00;58.40;;;;;;5007576;28;20033;-89
2022/12/30 07:10:17;;;;;;;129.85;57.05;;;11.50;59.60;;;;;;5015953;28;20037;-89
2022/12/30 07:12:43;;;;;;;147.90;63.42;;;11.50;59.60;;;;;;5010560;28;20662;-89
2022/12/30 07:15:09;;;;;;;169.82;70.43;;;11.60;59.30;;;;;;5010329;28;20026;-89
2022/12/30 07:17:34;;;;;;;158.88;68.10;;;11.70;58.90;;;;;;5014858;28;20018;-89
2022/12/30 07:20:00;;;;;;;141.35;58.97;;;11.60;58.80;;;;;;5002319;28;20088;-89
2022/12/30 07:22:26;;;;;;;138.65;57.67;;;11.30;59.90;;;;;;5008133;28;20026;-89
2022/12/30 07:24:52;;;;;;;114.97;52.55;;;11.10;60.20;;;;;;5011490;28;20041;-91
2022/12/30 07:27:19;;;;;;;132.80;52.75;;;10.80;61.40;;;;;;4995644;28;20477;-91
2022/12/30 07:29:45;;;;;;;121.50;57.13;;;10.90;61.50;;;;;;4999619;28;20026;-91
2022/12/30 07:32:11;;;;;;;130.27;60.83;;;11.30;60.60;;;;;;4995351;28;20034;-91
2022/12/30 07:34:37;;;;;;;129.27;57.80;;;11.70;59.10;;;;;;4995242;28;20127;-91
2022/12/30 07:37:03;;;;;;;122.45;51.38;;;11.90;58.80;;;;;;4996241;28;20057;-90
2022/12/30 07:39:30;;;;;;;137.02;55.90;;;11.90;58.70;;;;;;4994608;28;20088;-90
2022/12/30 07:41:56;;;;;;;128.90;57.22;;;12.00;58.50;;;;;;4994695;28;20033;-90
2022/12/30 07:44:22;;;;;;;168.88;73.47;;;11.70;59.10;;;;;;4994679;28;20034;-90
2022/12/30 07:46:47;;;;;;;139.70;62.90;;;11.60;59.20;;;;;;4994550;28;20397;-89
2022/12/30 07:49:13;;;;;;;120.55;53.67;;;11.70;59.50;;;;;;4994799;28;20073;-91
2022/12/30 07:51:41;;;;;;;126.88;55.72;;;11.70;59.80;;;;;;5012563;28;20473;-91
2022/12/30 07:54:07;;;;;;;121.15;53.80;;;11.80;59.00;;;;;;5014083;28;20030;-88
2022/12/30 07:56:33;;;;;;;105.60;47.42;;;11.70;60.00;;;;;;5014141;28;20041;-88
2022/12/30 07:58:59;;;;;;;103.45;48.30;;;11.60;59.80;;;;;;5009450;28;20026;-89
2022/12/30 08:01:25;;;;;;;89.25;41.33;;;11.40;59.90;;;;;;5013775;28;20496;-89
2022/12/30 08:03:51;;;;;;;102.00;45.00;;;11.00;60.80;;;;;;4999809;28;20116;-91
2022/12/30 08:06:18;;;;;;;126.15;58.60;;;11.00;61.80;;;;;;4999705;28;20096;-89
2022/12/30 08:08:51;;;;;;;100.07;46.04;;;11.40;60.60;;;;;;4922337;28;10000727;-89
2022/12/30 08:11:17;;;;;;;107.72;47.05;;;11.60;60.00;;;;;;5000605;28;20241;-89
2022/12/30 08:13:43;;;;;;;100.18;46.40;;;11.70;59.60;;;;;;5013433;28;20053;-88
2022/12/30 08:16:12;;;;;;;94.68;44.35;;;11.90;59.60;;;;;;4998997;28;20371;-88
2022/12/30 08:18:38;;;;;;;105.47;46.58;;;11.80;59.50;;;;;;4998373;28;20022;-88
2022/12/30 08:21:07;;;;;;;94.28;41.20;;;11.70;59.70;;;;;;5009295;28;20064;-88
2022/12/30 08:24:04;;;;;;;107.18;44.10;;;11.60;59.50;;;;;;5005186;28;20527;-87
2022/12/30 08:26:30;;;;;;;110.35;48.97;;;11.30;60.80;;;;;;4993976;28;20478;-89
2022/12/30 08:28:55;;;;;;;102.65;45.80;;;11.60;60.10;;;;;;4993838;28;20034;-89
2022/12/30 08:31:24;;;;;;;101.30;44.72;;;11.90;59.50;;;;;;5010712;28;20030;-90
2022/12/30 08:33:51;;;;;;;97.38;40.75;;;12.10;59.10;;;;;;5005873;28;20022;-88
2022/12/30 08:36:20;;;;;;;90.75;39.67;;;12.20;58.90;;;;;;5009219;28;20165;-88
2022/12/30 08:38:48;;;;;;;90.90;40.60;;;12.40;58.20;;;;;;5009779;28;20088;-87
2022/12/30 08:41:18;;;;;;;101.90;45.28;;;12.20;58.30;;;;;;5009882;28;20484;-88
2022/12/30 08:43:44;;;;;;;129.67;61.23;;;12.00;59.70;;;;;;5012199;28;20018;-88
2022/12/30 08:46:11;;;;;;;105.65;48.13;;;12.10;59.10;;;;;;5012521;28;20068;-86
2022/12/30 08:48:43;;;;;;;89.78;41.65;;;12.40;58.90;;;;;;5009818;28;20027;-87
2022/12/30 08:51:09;;;;;;;104.47;42.17;;;12.50;58.20;;;;;;5009314;28;20432;-86
2022/12/30 08:53:35;;;;;;;92.90;40.42;;;12.50;58.80;;;;;;5013140;28;20022;-87
2022/12/30 08:56:03;;;;;;;88.78;36.22;;;12.50;58.50;;;;;;5012469;28;20029;-88
2022/12/30 08:58:30;;;;;;;83.05;35.28;;;12.10;59.50;;;;;;5012522;28;20787;-87
2022/12/30 09:00:55;;;;;;;93.93;40.50;;;11.60;60.30;;;;;;5012331;28;20033;-86
2022/12/30 09:03:21;;;;;;;95.07;39.95;;;11.70;60.40;;;;;;5005711;28;20029;-87
2022/12/30 09:05:52;;;;;;;91.43;40.67;;;11.80;60.40;;;;;;5007841;28;20045;-88
2022/12/30 09:08:19;;;;;;;81.68;37.05;;;12.20;59.90;;;;;;5012354;28;20029;-86
2022/12/30 09:10:44;;;;;;;90.95;36.10;;;12.50;59.10;;;;;;5010554;28;20041;-87
2022/12/30 09:13:10;;;;;;;84.15;37.70;;;12.70;58.40;;;;;;4992935;28;20112;-87
2022/12/30 09:15:36;;;;;;;102.90;39.78;;;12.90;58.30;;;;;;5002016;28;20377;-87
2022/12/30 09:18:02;;;;;;;78.25;32.85;;;13.10;57.70;;;;;;5012609;28;20033;-87
2022/12/30 09:20:28;;;;;;;78.05;33.60;;;12.60;58.40;;;;;;5012519;28;20108;-87
2022/12/30 09:22:53;;;;;;;87.25;35.45;;;12.20;59.20;;;;;;4997572;28;20030;-87
2022/12/30 09:25:19;;;;;;;75.28;32.05;;;11.90;60.10;;;;;;5008328;28;20538;-87
2022/12/30 09:27:45;;;;;;;83.00;34.13;;;11.70;60.90;;;;;;5012817;28;20037;-87
2022/12/30 09:30:11;;;;;;;80.97;33.55;;;11.80;61.00;;;;;;5012218;28;20017;-87
2022/12/30 09:32:51;;;;;;;70.00;30.83;;;11.70;61.60;;;;;;5012848;28;20030;-86
2022/12/30 09:35:17;;;;;;;66.93;29.05;;;11.90;60.30;;;;;;5012780;28;20481;-87
2022/12/30 09:37:43;;;;;;;65.68;31.23;;;10.70;62.90;;;;;;5001520;28;20080;-87
2022/12/30 09:40:48;;;;;;;74.68;31.52;;;10.30;64.70;;;;;;5012774;28;20133;-87
2022/12/30 09:43:38;;;;;;;77.43;32.58;;;10.70;63.90;;;;;;5016964;28;20061;-86
2022/12/30 09:46:15;;;;;;;87.35;35.22;;;11.50;62.80;;;;;;5016854;28;20038;-87
2022/12/30 09:48:54;;;;;;;86.10;39.70;;;12.20;60.80;;;;;;5000524;28;20030;-86
2022/12/30 10:04:26;;;;;;;74.35;33.47;;;10.20;66.70;;;;;;5016233;28;20034;-91
2022/12/30 10:07:07;;;;;;;74.10;30.48;;;11.00;64.70;;;;;;4653501;28;10000275;-86
2022/12/30 10:10:11;;;;;;;69.97;30.70;;;11.80;63.10;;;;;;4995879;28;20117;-88
2022/12/30 10:12:46;;;;;;;68.55;32.40;;;12.50;60.50;;;;;;5007784;28;20045;-86
2022/12/30 10:15:39;;;;;;;74.10;32.47;;;12.30;61.40;;;;;;5003999;28;20092;-87
2022/12/30 10:18:27;;;;;;;65.82;31.88;;;12.60;61.00;;;;;;5002290;28;20026;-88
2022/12/30 10:20:58;;;;;;;71.28;33.10;;;12.80;59.90;;;;;;5007908;28;20124;-87
2022/12/30 10:24:03;;;;;;;73.85;31.98;;;12.70;60.50;;;;;;5008069;28;20026;-87
2022/12/30 10:26:37;;;;;;;66.63;31.15;;;13.00;59.80;;;;;;5015735;28;20034;-88
2022/12/30 10:29:27;;;;;;;73.53;34.40;;;13.50;58.80;;;;;;5015605;28;20014;-87
2022/12/30 10:31:53;;;;;;;66.55;33.78;;;13.80;58.50;;;;;;5010086;28;20344;-93
2022/12/30 10:34:29;;;;;;;67.18;32.42;;;13.90;58.10;;;;;;5009497;28;20026;-86
2022/12/30 10:37:05;;;;;;;69.75;33.33;;;14.00;57.70;;;;;;4996014;28;20034;-93
2022/12/30 10:39:36;;;;;;;77.05;35.53;;;14.10;57.60;;;;;;5010937;28;20050;-92
2022/12/30 10:42:22;;;;;;;70.30;32.17;;;14.30;57.40;;;;;;4996693;28;20762;-88
2022/12/30 10:45:22;;;;;;;58.38;27.63;;;14.30;57.20;;;;;;5014815;28;20100;-90
2022/12/30 10:48:33;;;;;;;58.88;27.25;;;14.20;57.10;;;;;;5010664;28;20466;-91
2022/12/30 10:50:58;;;;;;;;;;;13.50;58.70;;;;;;4958942;28;20073;-91
2022/12/30 10:53:27;;;;;;;67.57;28.35;;;13.20;59.30;;;;;;4957530;28;19910;-91
2022/12/30 10:55:56;;;;;;;63.15;29.60;;;12.70;61.50;;;;;;4957818;28;20126;-90
2022/12/30 10:58:42;;;;;;;65.53;32.97;;;12.70;61.10;;;;;;4958803;28;20039;-89
2022/12/30 11:01:17;;;;;;;150.80;98.80;;;12.60;61.50;;;;;;4958894;28;20086;-87
2022/12/30 11:03:49;;;;;;;68.63;29.77;;;12.80;61.70;;;;;;4957937;28;20022;-88
2022/12/30 11:06:28;;;;;;;59.15;29.83;;;13.20;60.50;;;;;;4954296;28;20466;-87
2022/12/30 11:09:12;;;;;;;61.63;28.30;;;13.10;60.70;;;;;;4949368;29;20035;-91
2022/12/30 11:14:46;;;;;;;72.97;32.47;;;12.00;63.50;;;;;;4964562;28;20437;-87
2022/12/30 11:17:20;;;;;;;58.20;27.98;;;11.90;63.80;;;;;;4967227;28;20031;-88
2022/12/30 11:20:05;;;;;;;64.35;30.25;;;11.90;63.20;;;;;;4958770;28;20067;-91
2022/12/30 11:22:31;;;;;;;73.13;32.33;;;11.90;64.10;;;;;;4958619;28;20026;-87
2022/12/30 11:25:20;;;;;;;65.18;29.23;;;12.30;62.40;;;;;;4959387;28;20038;-88
2022/12/30 11:27:54;;;;;;;70.80;30.33;;;12.40;62.30;;;;;;4984291;28;20041;-89
2022/12/30 11:30:42;;;;;;;68.50;29.65;;;12.50;61.70;;;;;;4995037;28;20069;-90
2022/12/30 11:33:24;;;;;;;67.32;31.55;;;12.80;61.10;;;;;;5011801;28;20018;-90
2022/12/30 11:35:51;;;;;;;78.15;33.75;;;12.90;60.70;;;;;;4995388;28;20022;-90
2022/12/30 11:38:33;;;;;;;70.53;34.60;;;13.10;60.10;;;;;;4993705;28;20047;-90
2022/12/30 11:41:19;;;;;;;77.47;31.83;;;13.20;60.10;;;;;;4994015;28;20087;-95
2022/12/30 11:43:45;;;;;;;82.47;34.50;;;12.90;60.90;;;;;;4996435;28;20045;-94
2022/12/30 11:46:14;;;;;;;79.40;34.58;;;12.70;61.40;;;;;;5012838;28;20042;-90
2022/12/30 11:48:45;;;;;;;82.38;33.75;;;12.90;61.50;;;;;;4989469;28;20580;-89
2022/12/30 11:51:58;;;;;;;74.47;35.40;;;13.20;60.80;;;;;;4995851;28;20072;-90
2022/12/30 11:54:31;;;;;;;72.93;31.65;;;13.60;60.00;;;;;;4918435;29;20040;-96
2022/12/30 11:57:01;;;;;;;75.97;34.75;;;13.90;59.60;;;;;;4901874;29;20036;-90
2022/12/30 11:59:44;;;;;;;75.13;36.55;;;14.10;59.20;;;;;;4913906;29;20040;-90
2022/12/30 12:02:37;;;;;;;77.07;36.78;;;14.20;58.80;;;;;;4920865;29;20079;-89
2022/12/30 12:05:22;;;;;;;83.32;42.08;;;14.00;58.80;;;;;;4917023;29;20478;-93
2022/12/30 12:07:50;;;;;;;67.43;31.83;;;14.00;59.50;;;;;;4920320;29;20067;-88
2022/12/30 12:10:36;;;;;;;81.28;35.17;;;14.00;59.10;;;;;;4918601;29;20028;-87
2022/12/30 12:13:09;;;;;;;76.18;35.45;;;14.20;59.10;;;;;;4919373;29;20127;-93
2022/12/30 12:15:53;;;;;;;74.22;33.55;;;14.50;58.50;;;;;;4578817;28;9999617;-94
2022/12/30 12:18:40;;;;;;;63.45;29.83;;;14.70;57.80;;;;;;4900891;29;20080;-93
2022/12/30 12:21:26;;;;;;;64.53;29.63;;;14.80;57.70;;;;;;4902285;29;20059;-86
2022/12/30 12:24:16;;;;;;;69.68;34.67;;;14.70;57.80;;;;;;4900518;29;20126;-88
2022/12/30 12:27:19;;;;;;;60.85;28.27;;;14.80;57.30;;;;;;4912430;29;20039;-87
2022/12/30 12:30:01;;;;;;;68.15;28.85;;;14.70;57.80;;;;;;4926570;28;20042;-92
2022/12/30 12:32:48;;;;;;;65.63;27.10;;;14.60;58.30;;;;;;5006410;28;20065;-93
2022/12/30 12:35:36;;;;;;;60.67;28.55;;;14.60;58.00;;;;;;4996223;28;20377;-94
2022/12/30 12:38:25;;;;;;;59.50;28.15;;;14.50;58.60;;;;;;4991629;28;20026;-91
2022/12/30 12:41:19;;;;;;;57.50;25.92;;;14.40;58.70;;;;;;5007643;28;20029;-93
2022/12/30 12:44:17;;;;;;;60.80;27.63;;;13.90;59.40;;;;;;5006788;28;20026;-88
2022/12/30 12:47:06;;;;;;;63.25;30.00;;;13.90;60.10;;;;;;4993672;28;20125;-87
2022/12/30 12:50:05;;;;;;;73.57;31.80;;;14.00;59.50;;;;;;5007384;28;20037;-91
2022/12/30 12:52:39;;;;;;;73.30;30.25;;;13.80;60.80;;;;;;4979288;28;20070;-93
2022/12/30 12:55:34;;;;;;;66.30;29.40;;;14.00;60.00;;;;;;4996328;28;20026;-96
2022/12/30 12:58:10;;;;;;;65.28;39.33;;;14.30;59.60;;;;;;5010858;28;20026;-94
2022/12/30 13:01:09;;;;;;;59.92;28.15;;;14.40;58.90;;;;;;5013295;28;20125;-88
2022/12/30 13:03:53;;;;;;;63.40;28.65;;;14.60;58.90;;;;;;5013221;28;20022;-88
2022/12/30 13:06:22;;;;;;;62.83;28.95;;;14.70;58.70;;;;;;5007775;28;20065;-87
2022/12/30 13:09:32;;;;;;;57.88;28.08;;;14.80;58.40;;;;;;5007990;28;20018;-87
2022/12/30 13:12:13;;;;;;;67.25;30.70;;;14.80;58.30;;;;;;4946519;28;20101;-86
2022/12/30 13:14:47;;;;;;;;;;;14.90;58.00;;;;;;4957630;28;20043;-93
2022/12/30 13:17:31;;;;;;;63.45;30.08;;;14.80;58.10;;;;;;4972758;28;19906;-91
2022/12/30 13:20:04;;;;;;;72.40;32.53;;;14.60;58.80;;;;;;4973059;28;20110;-86
2022/12/30 13:22:35;;;;;;;78.85;32.97;;;14.70;58.50;;;;;;4957312;28;20038;-92
2022/12/30 13:25:13;;;;;;;70.80;33.13;;;14.80;58.60;;;;;;4957018;28;20503;-93
2022/12/30 13:27:40;;;;;;;66.87;32.17;;;14.80;58.10;;;;;;4610880;29;9999851;-87
2022/12/30 13:30:12;;;;;;;62.53;30.23;;;14.70;58.40;;;;;;4937083;29;20705;-89
2022/12/30 13:33:06;;;;;;;80.70;34.75;;;14.50;58.60;;;;;;4936637;29;20027;-90
2022/12/30 13:36:03;;;;;;;70.10;32.72;;;13.90;60.10;;;;;;4936453;29;20427;-91
2022/12/30 13:38:37;;;;;;;82.93;37.33;;;14.00;60.00;;;;;;4951103;28;20039;-91
2022/12/30 13:41:20;;;;;;;93.28;44.22;;;14.10;60.10;;;;;;4936248;29;20044;-90
2022/12/30 13:43:56;;;;;;;87.88;44.35;;;14.20;59.80;;;;;;4936363;29;20027;-89
2022/12/30 13:46:25;;;;;;;85.93;43.55;;;14.20;59.80;;;;;;4936276;28;20046;-91
2022/12/30 13:49:03;;;;;;;91.20;46.35;;;14.00;60.00;;;;;;4992194;28;20070;-92
2022/12/30 13:51:30;;;;;;;91.35;43.65;;;13.90;60.50;;;;;;4992114;28;20429;-90
2022/12/30 13:54:07;;;;;;;88.78;46.97;;;13.90;60.70;;;;;;4992396;28;20109;-88
2022/12/30 13:56:34;;;;;;;78.00;39.03;;;13.90;60.70;;;;;;4991620;28;20026;-88